sensor_id;sensor_type;location;lat;lon;timestamp;P1;durP1;ratioP1;P2;durP2;ratioP2
35026;SDS011;60696;51.426;6.934;2022-09-09T00:00:44;1.45;;;0.60;;
35026;SDS011;60696;51.426;6.934;2022-09-09T00:06:19;2.78;;;0.43;;
35026;SDS011;60696;51.426;6.934;2022-09-09T00:11:29;2.58;;;0.52;;
35026;SDS011;60696;51.426;6.934;2022-09-09T00:14:34;5.20;;;0.68;;
35026;SDS011;60696;51.426;6.934;2022-09-09T00:17:14;1.90;;;0.60;;
35026;SDS011;60696;51.426;6.934;2022-09-09T00:19:55;3.35;;;0.85;;
35026;SDS011;60696;51.426;6.934;2022-09-09T00:22:27;4.22;;;0.60;;
35026;SDS011;60696;51.426;6.934;2022-09-09T00:24:57;1.27;;;0.40;;
35026;SDS011;60696;51.426;6.934;2022-09-09T00:32:44;1.95;;;0.60;;
35026;SDS011;60696;51.426;6.934;2022-09-09T00:37:35;3.03;;;0.63;;
35026;SDS011;60696;51.426;6.934;2022-09-09T00:40:04;2.40;;;0.60;;
35026;SDS011;60696;51.426;6.934;2022-09-09T00:42:43;2.00;;;0.60;;
35026;SDS011;60696;51.426;6.934;2022-09-09T00:47:40;2.08;;;0.50;;
35026;SDS011;60696;51.426;6.934;2022-09-09T00:55:45;3.40;;;0.50;;
35026;SDS011;60696;51.426;6.934;2022-09-09T00:58:18;1.90;;;0.50;;
35026;SDS011;60696;51.426;6.934;2022-09-09T01:00:45;2.45;;;0.75;;
35026;SDS011;60696;51.426;6.934;2022-09-09T01:03:21;2.45;;;0.50;;
35026;SDS011;60696;51.426;6.934;2022-09-09T01:11:24;2.83;;;1.00;;
35026;SDS011;60696;51.426;6.934;2022-09-09T01:14:10;5.93;;;0.70;;
35026;SDS011;60696;51.426;6.934;2022-09-09T01:16:43;2.70;;;0.95;;
35026;SDS011;60696;51.426;6.934;2022-09-09T01:19:10;4.72;;;0.70;;
35026;SDS011;60696;51.426;6.934;2022-09-09T01:22:01;4.15;;;0.85;;
35026;SDS011;60696;51.426;6.934;2022-09-09T01:29:51;4.30;;;1.10;;
35026;SDS011;60696;51.426;6.934;2022-09-09T01:37:49;6.75;;;1.13;;
35026;SDS011;60696;51.426;6.934;2022-09-09T01:40:15;3.45;;;1.10;;
35026;SDS011;60696;51.426;6.934;2022-09-09T01:42:40;4.05;;;1.13;;
35026;SDS011;60696;51.426;6.934;2022-09-09T01:45:06;4.38;;;1.10;;
35026;SDS011;60696;51.426;6.934;2022-09-09T01:47:32;2.25;;;0.90;;
35026;SDS011;60696;51.426;6.934;2022-09-09T01:49:58;4.45;;;1.13;;
35026;SDS011;60696;51.426;6.934;2022-09-09T01:52:25;5.85;;;1.33;;
35026;SDS011;60696;51.426;6.934;2022-09-09T01:54:50;3.20;;;0.93;;
35026;SDS011;60696;51.426;6.934;2022-09-09T01:57:21;3.08;;;0.90;;
35026;SDS011;60696;51.426;6.934;2022-09-09T02:07:48;3.92;;;0.80;;
35026;SDS011;60696;51.426;6.934;2022-09-09T02:10:17;8.32;;;1.05;;
35026;SDS011;60696;51.426;6.934;2022-09-09T02:12:50;4.03;;;0.75;;
35026;SDS011;60696;51.426;6.934;2022-09-09T02:15:27;4.40;;;1.00;;
35026;SDS011;60696;51.426;6.934;2022-09-09T02:17:54;3.10;;;0.60;;
35026;SDS011;60696;51.426;6.934;2022-09-09T02:20:22;3.28;;;0.85;;
35026;SDS011;60696;51.426;6.934;2022-09-09T02:22:52;4.95;;;0.77;;
35026;SDS011;60696;51.426;6.934;2022-09-09T02:25:19;2.83;;;1.05;;
35026;SDS011;60696;51.426;6.934;2022-09-09T02:27:48;5.38;;;1.00;;
35026;SDS011;60696;51.426;6.934;2022-09-09T02:30:16;3.40;;;1.02;;
35026;SDS011;60696;51.426;6.934;2022-09-09T02:32:43;3.00;;;1.00;;
35026;SDS011;60696;51.426;6.934;2022-09-09T02:35:12;3.20;;;1.10;;
35026;SDS011;60696;51.426;6.934;2022-09-09T02:37:41;3.75;;;0.75;;
35026;SDS011;60696;51.426;6.934;2022-09-09T02:40:12;5.32;;;1.23;;
35026;SDS011;60696;51.426;6.934;2022-09-09T02:42:43;4.53;;;1.13;;
35026;SDS011;60696;51.426;6.934;2022-09-09T02:45:12;4.57;;;1.10;;
35026;SDS011;60696;51.426;6.934;2022-09-09T02:47:44;3.70;;;1.02;;
35026;SDS011;60696;51.426;6.934;2022-09-09T02:50:35;5.80;;;1.05;;
35026;SDS011;60696;51.426;6.934;2022-09-09T02:58:01;5.35;;;1.20;;
35026;SDS011;60696;51.426;6.934;2022-09-09T03:00:31;4.05;;;1.10;;
35026;SDS011;60696;51.426;6.934;2022-09-09T03:02:57;5.55;;;1.20;;
35026;SDS011;60696;51.426;6.934;2022-09-09T03:05:23;4.90;;;1.20;;
35026;SDS011;60696;51.426;6.934;2022-09-09T03:07:49;4.80;;;1.55;;
35026;SDS011;60696;51.426;6.934;2022-09-09T03:10:15;7.20;;;1.35;;
35026;SDS011;60696;51.426;6.934;2022-09-09T03:12:42;5.07;;;1.30;;
35026;SDS011;60696;51.426;6.934;2022-09-09T03:15:08;6.72;;;1.30;;
35026;SDS011;60696;51.426;6.934;2022-09-09T03:17:34;4.38;;;1.45;;
35026;SDS011;60696;51.426;6.934;2022-09-09T03:20:01;5.50;;;1.33;;
35026;SDS011;60696;51.426;6.934;2022-09-09T03:22:27;3.92;;;1.25;;
35026;SDS011;60696;51.426;6.934;2022-09-09T03:24:53;5.00;;;1.40;;
35026;SDS011;60696;51.426;6.934;2022-09-09T03:27:19;9.95;;;1.48;;
35026;SDS011;60696;51.426;6.934;2022-09-09T03:29:45;5.57;;;1.52;;
35026;SDS011;60696;51.426;6.934;2022-09-09T03:32:11;6.40;;;1.02;;
35026;SDS011;60696;51.426;6.934;2022-09-09T03:34:37;3.17;;;1.10;;
35026;SDS011;60696;51.426;6.934;2022-09-09T03:37:05;2.13;;;0.93;;
35026;SDS011;60696;51.426;6.934;2022-09-09T03:39:31;5.03;;;1.20;;
35026;SDS011;60696;51.426;6.934;2022-09-09T03:41:56;7.82;;;1.35;;
35026;SDS011;60696;51.426;6.934;2022-09-09T03:44:22;6.82;;;1.30;;
35026;SDS011;60696;51.426;6.934;2022-09-09T03:46:47;4.32;;;1.30;;
35026;SDS011;60696;51.426;6.934;2022-09-09T03:49:13;6.72;;;1.60;;
35026;SDS011;60696;51.426;6.934;2022-09-09T03:51:39;4.75;;;1.13;;
35026;SDS011;60696;51.426;6.934;2022-09-09T03:54:05;3.17;;;0.90;;
35026;SDS011;60696;51.426;6.934;2022-09-09T03:56:33;4.18;;;1.40;;
35026;SDS011;60696;51.426;6.934;2022-09-09T03:58:59;4.78;;;1.10;;
35026;SDS011;60696;51.426;6.934;2022-09-09T04:01:25;7.05;;;1.35;;
35026;SDS011;60696;51.426;6.934;2022-09-09T04:03:50;5.45;;;0.90;;
35026;SDS011;60696;51.426;6.934;2022-09-09T04:06:17;3.42;;;0.80;;
35026;SDS011;60696;51.426;6.934;2022-09-09T04:08:44;6.22;;;1.30;;
35026;SDS011;60696;51.426;6.934;2022-09-09T04:11:13;8.25;;;1.50;;
35026;SDS011;60696;51.426;6.934;2022-09-09T04:13:40;4.97;;;1.38;;
35026;SDS011;60696;51.426;6.934;2022-09-09T04:16:07;5.55;;;1.20;;
35026;SDS011;60696;51.426;6.934;2022-09-09T04:18:34;5.18;;;0.90;;
35026;SDS011;60696;51.426;6.934;2022-09-09T04:20:59;4.95;;;1.23;;
35026;SDS011;60696;51.426;6.934;2022-09-09T04:23:26;6.35;;;1.15;;
35026;SDS011;60696;51.426;6.934;2022-09-09T04:25:56;3.80;;;1.20;;
35026;SDS011;60696;51.426;6.934;2022-09-09T04:28:23;4.72;;;1.25;;
35026;SDS011;60696;51.426;6.934;2022-09-09T04:30:51;4.80;;;1.38;;
35026;SDS011;60696;51.426;6.934;2022-09-09T04:33:17;6.72;;;1.00;;
35026;SDS011;60696;51.426;6.934;2022-09-09T04:35:44;4.75;;;1.10;;
35026;SDS011;60696;51.426;6.934;2022-09-09T04:38:11;4.80;;;1.20;;
35026;SDS011;60696;51.426;6.934;2022-09-09T04:40:37;3.67;;;0.90;;
35026;SDS011;60696;51.426;6.934;2022-09-09T04:43:05;6.78;;;1.00;;
35026;SDS011;60696;51.426;6.934;2022-09-09T04:45:31;10.65;;;1.20;;
35026;SDS011;60696;51.426;6.934;2022-09-09T04:47:57;4.65;;;1.10;;
35026;SDS011;60696;51.426;6.934;2022-09-09T04:50:22;7.28;;;1.20;;
35026;SDS011;60696;51.426;6.934;2022-09-09T04:52:48;7.60;;;1.38;;
35026;SDS011;60696;51.426;6.934;2022-09-09T04:55:14;3.13;;;1.13;;
35026;SDS011;60696;51.426;6.934;2022-09-09T04:57:40;5.30;;;1.10;;
35026;SDS011;60696;51.426;6.934;2022-09-09T05:00:06;8.38;;;1.30;;
35026;SDS011;60696;51.426;6.934;2022-09-09T05:02:33;8.93;;;1.00;;
35026;SDS011;60696;51.426;6.934;2022-09-09T05:05:02;8.38;;;1.25;;
35026;SDS011;60696;51.426;6.934;2022-09-09T05:07:28;8.65;;;1.10;;
35026;SDS011;60696;51.426;6.934;2022-09-09T05:09:56;7.30;;;1.55;;
35026;SDS011;60696;51.426;6.934;2022-09-09T05:12:21;5.10;;;1.00;;
35026;SDS011;60696;51.426;6.934;2022-09-09T05:14:50;8.63;;;1.67;;
35026;SDS011;60696;51.426;6.934;2022-09-09T05:17:16;5.80;;;1.35;;
35026;SDS011;60696;51.426;6.934;2022-09-09T05:19:42;6.90;;;1.73;;
35026;SDS011;60696;51.426;6.934;2022-09-09T05:22:09;5.75;;;1.50;;
35026;SDS011;60696;51.426;6.934;2022-09-09T05:24:36;12.40;;;1.48;;
35026;SDS011;60696;51.426;6.934;2022-09-09T05:27:03;4.57;;;1.10;;
35026;SDS011;60696;51.426;6.934;2022-09-09T05:29:30;7.07;;;1.40;;
35026;SDS011;60696;51.426;6.934;2022-09-09T05:31:58;9.40;;;1.83;;
35026;SDS011;60696;51.426;6.934;2022-09-09T05:34:24;7.35;;;1.38;;
35026;SDS011;60696;51.426;6.934;2022-09-09T05:36:50;6.65;;;1.88;;
35026;SDS011;60696;51.426;6.934;2022-09-09T05:39:17;6.25;;;1.17;;
35026;SDS011;60696;51.426;6.934;2022-09-09T05:41:43;11.07;;;1.23;;
35026;SDS011;60696;51.426;6.934;2022-09-09T05:44:08;6.35;;;1.40;;
35026;SDS011;60696;51.426;6.934;2022-09-09T05:46:34;9.07;;;1.30;;
35026;SDS011;60696;51.426;6.934;2022-09-09T05:49:00;5.75;;;1.30;;
35026;SDS011;60696;51.426;6.934;2022-09-09T05:51:28;6.97;;;1.52;;
35026;SDS011;60696;51.426;6.934;2022-09-09T05:53:57;9.27;;;2.03;;
35026;SDS011;60696;51.426;6.934;2022-09-09T05:56:24;10.43;;;2.10;;
35026;SDS011;60696;51.426;6.934;2022-09-09T05:58:54;6.63;;;1.60;;
35026;SDS011;60696;51.426;6.934;2022-09-09T06:01:31;7.47;;;1.90;;
35026;SDS011;60696;51.426;6.934;2022-09-09T06:03:58;6.95;;;1.10;;
35026;SDS011;60696;51.426;6.934;2022-09-09T06:06:25;6.38;;;1.40;;
35026;SDS011;60696;51.426;6.934;2022-09-09T06:08:53;8.98;;;1.67;;
35026;SDS011;60696;51.426;6.934;2022-09-09T06:11:26;6.18;;;1.33;;
35026;SDS011;60696;51.426;6.934;2022-09-09T06:13:56;6.22;;;1.38;;
35026;SDS011;60696;51.426;6.934;2022-09-09T06:16:23;7.57;;;1.42;;
35026;SDS011;60696;51.426;6.934;2022-09-09T06:18:50;8.85;;;1.83;;
35026;SDS011;60696;51.426;6.934;2022-09-09T06:21:17;8.07;;;2.00;;
35026;SDS011;60696;51.426;6.934;2022-09-09T06:23:45;5.50;;;1.40;;
35026;SDS011;60696;51.426;6.934;2022-09-09T06:28:47;7.30;;;1.58;;
35026;SDS011;60696;51.426;6.934;2022-09-09T06:31:15;5.72;;;1.30;;
35026;SDS011;60696;51.426;6.934;2022-09-09T06:33:47;7.85;;;1.40;;
35026;SDS011;60696;51.426;6.934;2022-09-09T06:36:16;4.65;;;1.52;;
35026;SDS011;60696;51.426;6.934;2022-09-09T06:38:43;6.32;;;1.50;;
35026;SDS011;60696;51.426;6.934;2022-09-09T06:41:10;8.65;;;1.60;;
35026;SDS011;60696;51.426;6.934;2022-09-09T06:43:37;8.45;;;1.60;;
35026;SDS011;60696;51.426;6.934;2022-09-09T06:48:42;7.78;;;1.92;;
35026;SDS011;60696;51.426;6.934;2022-09-09T06:53:37;8.60;;;1.45;;
35026;SDS011;60696;51.426;6.934;2022-09-09T07:01:14;8.48;;;1.75;;
35026;SDS011;60696;51.426;6.934;2022-09-09T07:03:46;12.07;;;2.35;;
35026;SDS011;60696;51.426;6.934;2022-09-09T07:06:14;9.23;;;1.60;;
35026;SDS011;60696;51.426;6.934;2022-09-09T07:08:42;5.75;;;1.10;;
35026;SDS011;60696;51.426;6.934;2022-09-09T07:11:08;4.95;;;1.20;;
35026;SDS011;60696;51.426;6.934;2022-09-09T07:13:34;11.20;;;1.40;;
35026;SDS011;60696;51.426;6.934;2022-09-09T07:16:07;5.97;;;1.25;;
35026;SDS011;60696;51.426;6.934;2022-09-09T07:18:34;6.88;;;1.48;;
35026;SDS011;60696;51.426;6.934;2022-09-09T07:21:00;7.68;;;1.83;;
35026;SDS011;60696;51.426;6.934;2022-09-09T07:23:28;8.65;;;1.30;;
35026;SDS011;60696;51.426;6.934;2022-09-09T07:25:55;6.18;;;1.55;;
35026;SDS011;60696;51.426;6.934;2022-09-09T07:28:24;9.77;;;1.67;;
35026;SDS011;60696;51.426;6.934;2022-09-09T07:30:55;8.00;;;1.67;;
35026;SDS011;60696;51.426;6.934;2022-09-09T07:33:21;6.40;;;1.60;;
35026;SDS011;60696;51.426;6.934;2022-09-09T07:35:48;6.50;;;1.20;;
35026;SDS011;60696;51.426;6.934;2022-09-09T07:38:14;9.10;;;1.50;;
35026;SDS011;60696;51.426;6.934;2022-09-09T07:40:41;5.20;;;1.17;;
35026;SDS011;60696;51.426;6.934;2022-09-09T07:43:07;7.30;;;1.42;;
35026;SDS011;60696;51.426;6.934;2022-09-09T07:45:33;5.13;;;1.20;;
35026;SDS011;60696;51.426;6.934;2022-09-09T07:48:00;4.03;;;0.90;;
35026;SDS011;60696;51.426;6.934;2022-09-09T07:50:26;6.68;;;1.50;;
35026;SDS011;60696;51.426;6.934;2022-09-09T07:52:52;7.65;;;1.58;;
35026;SDS011;60696;51.426;6.934;2022-09-09T07:55:19;5.22;;;1.40;;
35026;SDS011;60696;51.426;6.934;2022-09-09T07:57:45;7.00;;;1.50;;
35026;SDS011;60696;51.426;6.934;2022-09-09T08:00:11;7.63;;;1.42;;
35026;SDS011;60696;51.426;6.934;2022-09-09T08:02:39;7.93;;;1.42;;
35026;SDS011;60696;51.426;6.934;2022-09-09T08:05:05;3.20;;;0.95;;
35026;SDS011;60696;51.426;6.934;2022-09-09T08:07:31;7.82;;;1.40;;
35026;SDS011;60696;51.426;6.934;2022-09-09T08:09:57;10.65;;;2.03;;
35026;SDS011;60696;51.426;6.934;2022-09-09T08:12:23;7.03;;;1.58;;
35026;SDS011;60696;51.426;6.934;2022-09-09T08:14:49;4.95;;;1.13;;
35026;SDS011;60696;51.426;6.934;2022-09-09T08:17:16;5.72;;;1.30;;
35026;SDS011;60696;51.426;6.934;2022-09-09T08:19:42;4.90;;;1.35;;
35026;SDS011;60696;51.426;6.934;2022-09-09T08:22:07;5.80;;;1.02;;
35026;SDS011;60696;51.426;6.934;2022-09-09T08:24:33;3.65;;;1.10;;
35026;SDS011;60696;51.426;6.934;2022-09-09T08:26:59;5.20;;;1.15;;
35026;SDS011;60696;51.426;6.934;2022-09-09T08:29:24;5.47;;;1.10;;
35026;SDS011;60696;51.426;6.934;2022-09-09T08:31:54;7.60;;;1.50;;
35026;SDS011;60696;51.426;6.934;2022-09-09T08:34:22;7.35;;;1.25;;
35026;SDS011;60696;51.426;6.934;2022-09-09T08:36:49;7.93;;;0.98;;
35026;SDS011;60696;51.426;6.934;2022-09-09T08:39:16;8.82;;;1.38;;
35026;SDS011;60696;51.426;6.934;2022-09-09T08:50:22;6.78;;;1.00;;
35026;SDS011;60696;51.426;6.934;2022-09-09T08:52:28;8.48;;;1.38;;
35026;SDS011;60696;51.426;6.934;2022-09-09T08:58:16;5.10;;;1.15;;
35026;SDS011;60696;51.426;6.934;2022-09-09T09:12:15;6.15;;;1.30;;
35026;SDS011;60696;51.426;6.934;2022-09-09T09:14:42;4.07;;;1.15;;
35026;SDS011;60696;51.426;6.934;2022-09-09T09:17:11;7.30;;;1.30;;
35026;SDS011;60696;51.426;6.934;2022-09-09T09:19:40;4.97;;;1.25;;
35026;SDS011;60696;51.426;6.934;2022-09-09T09:22:21;6.53;;;1.05;;
35026;SDS011;60696;51.426;6.934;2022-09-09T09:24:58;5.47;;;1.55;;
35026;SDS011;60696;51.426;6.934;2022-09-09T09:30:01;3.80;;;1.15;;
35026;SDS011;60696;51.426;6.934;2022-09-09T09:32:38;6.35;;;1.27;;
35026;SDS011;60696;51.426;6.934;2022-09-09T09:35:12;5.90;;;1.30;;
35026;SDS011;60696;51.426;6.934;2022-09-09T09:37:39;5.07;;;1.23;;
35026;SDS011;60696;51.426;6.934;2022-09-09T09:40:12;9.35;;;1.60;;
35026;SDS011;60696;51.426;6.934;2022-09-09T09:42:53;8.00;;;1.58;;
35026;SDS011;60696;51.426;6.934;2022-09-09T09:47:57;7.65;;;1.20;;
35026;SDS011;60696;51.426;6.934;2022-09-09T09:50:28;6.68;;;1.35;;
35026;SDS011;60696;51.426;6.934;2022-09-09T09:52:56;7.88;;;1.55;;
35026;SDS011;60696;51.426;6.934;2022-09-09T09:55:23;6.40;;;1.30;;
35026;SDS011;60696;51.426;6.934;2022-09-09T09:57:50;6.40;;;1.27;;
35026;SDS011;60696;51.426;6.934;2022-09-09T10:00:18;4.25;;;1.23;;
35026;SDS011;60696;51.426;6.934;2022-09-09T10:02:45;5.43;;;1.27;;
35026;SDS011;60696;51.426;6.934;2022-09-09T10:05:16;4.70;;;1.17;;
35026;SDS011;60696;51.426;6.934;2022-09-09T10:07:42;5.13;;;1.48;;
35026;SDS011;60696;51.426;6.934;2022-09-09T10:10:20;4.95;;;1.10;;
35026;SDS011;60696;51.426;6.934;2022-09-09T10:13:06;3.28;;;0.80;;
35026;SDS011;60696;51.426;6.934;2022-09-09T10:15:51;4.55;;;0.90;;
35026;SDS011;60696;51.426;6.934;2022-09-09T10:18:47;5.70;;;0.95;;
35026;SDS011;60696;51.426;6.934;2022-09-09T10:21:26;2.35;;;0.70;;
35026;SDS011;60696;51.426;6.934;2022-09-09T10:26:50;2.30;;;0.70;;
35026;SDS011;60696;51.426;6.934;2022-09-09T10:32:12;3.70;;;0.95;;
35026;SDS011;60696;51.426;6.934;2022-09-09T10:35:29;3.80;;;0.90;;
35026;SDS011;60696;51.426;6.934;2022-09-09T10:38:14;1.60;;;0.60;;
35026;SDS011;60696;51.426;6.934;2022-09-09T10:40:48;3.25;;;0.77;;
35026;SDS011;60696;51.426;6.934;2022-09-09T10:56:54;2.78;;;0.68;;
35026;SDS011;60696;51.426;6.934;2022-09-09T10:59:25;3.78;;;1.00;;
35026;SDS011;60696;51.426;6.934;2022-09-09T11:02:16;6.28;;;0.80;;
35026;SDS011;60696;51.426;6.934;2022-09-09T11:05:10;2.30;;;0.60;;
35026;SDS011;60696;51.426;6.934;2022-09-09T11:07:59;3.03;;;0.98;;
35026;SDS011;60696;51.426;6.934;2022-09-09T11:13:24;5.22;;;0.90;;
35026;SDS011;60696;51.426;6.934;2022-09-09T11:15:53;3.03;;;0.90;;
35026;SDS011;60696;51.426;6.934;2022-09-09T11:18:24;4.45;;;0.70;;
35026;SDS011;60696;51.426;6.934;2022-09-09T11:20:55;4.90;;;0.93;;
35026;SDS011;60696;51.426;6.934;2022-09-09T11:23:27;3.60;;;1.05;;
35026;SDS011;60696;51.426;6.934;2022-09-09T11:26:05;4.78;;;1.23;;
35026;SDS011;60696;51.426;6.934;2022-09-09T11:28:52;4.85;;;1.08;;
35026;SDS011;60696;51.426;6.934;2022-09-09T11:42:24;5.68;;;1.05;;
35026;SDS011;60696;51.426;6.934;2022-09-09T11:44:50;3.10;;;1.10;;
35026;SDS011;60696;51.426;6.934;2022-09-09T11:47:28;3.83;;;0.98;;
35026;SDS011;60696;51.426;6.934;2022-09-09T11:50:27;3.75;;;1.00;;
35026;SDS011;60696;51.426;6.934;2022-09-09T11:53:19;4.20;;;1.27;;
35026;SDS011;60696;51.426;6.934;2022-09-09T11:56:05;4.32;;;0.88;;
35026;SDS011;60696;51.426;6.934;2022-09-09T11:58:36;4.05;;;1.10;;
35026;SDS011;60696;51.426;6.934;2022-09-09T12:01:27;3.28;;;0.95;;
35026;SDS011;60696;51.426;6.934;2022-09-09T12:04:17;5.25;;;1.38;;
35026;SDS011;60696;51.426;6.934;2022-09-09T12:06:53;4.13;;;0.80;;
35026;SDS011;60696;51.426;6.934;2022-09-09T12:12:37;2.25;;;0.50;;
35026;SDS011;60696;51.426;6.934;2022-09-09T12:15:17;4.32;;;0.80;;
35026;SDS011;60696;51.426;6.934;2022-09-09T12:17:57;2.22;;;0.73;;
35026;SDS011;60696;51.426;6.934;2022-09-09T12:28:09;4.32;;;0.80;;
35026;SDS011;60696;51.426;6.934;2022-09-09T12:30:44;1.48;;;0.50;;
35026;SDS011;60696;51.426;6.934;2022-09-09T12:33:36;2.45;;;0.60;;
35026;SDS011;60696;51.426;6.934;2022-09-09T12:36:05;1.40;;;0.43;;
35026;SDS011;60696;51.426;6.934;2022-09-09T12:38:39;2.85;;;1.02;;
35026;SDS011;60696;51.426;6.934;2022-09-09T12:41:06;3.00;;;0.50;;
35026;SDS011;60696;51.426;6.934;2022-09-09T12:43:44;7.20;;;0.90;;
35026;SDS011;60696;51.426;6.934;2022-09-09T12:46:12;6.82;;;0.80;;
35026;SDS011;60696;51.426;6.934;2022-09-09T12:48:56;2.83;;;0.73;;
35026;SDS011;60696;51.426;6.934;2022-09-09T12:51:27;5.68;;;0.82;;
35026;SDS011;60696;51.426;6.934;2022-09-09T12:53:55;6.05;;;0.80;;
35026;SDS011;60696;51.426;6.934;2022-09-09T12:56:25;5.30;;;0.80;;
35026;SDS011;60696;51.426;6.934;2022-09-09T12:58:56;4.13;;;0.90;;
35026;SDS011;60696;51.426;6.934;2022-09-09T13:01:30;2.25;;;0.80;;
35026;SDS011;60696;51.426;6.934;2022-09-09T13:03:58;6.82;;;1.00;;
35026;SDS011;60696;51.426;6.934;2022-09-09T13:06:25;2.75;;;0.77;;
35026;SDS011;60696;51.426;6.934;2022-09-09T13:08:53;3.10;;;0.85;;
35026;SDS011;60696;51.426;6.934;2022-09-09T13:11:25;3.10;;;0.65;;
35026;SDS011;60696;51.426;6.934;2022-09-09T13:13:57;4.63;;;1.10;;
35026;SDS011;60696;51.426;6.934;2022-09-09T13:16:27;2.70;;;1.00;;
35026;SDS011;60696;51.426;6.934;2022-09-09T13:19:01;6.43;;;1.40;;
35026;SDS011;60696;51.426;6.934;2022-09-09T13:21:36;5.28;;;1.40;;
35026;SDS011;60696;51.426;6.934;2022-09-09T13:24:06;9.50;;;1.30;;
35026;SDS011;60696;51.426;6.934;2022-09-09T13:27:01;6.78;;;1.15;;
35026;SDS011;60696;51.426;6.934;2022-09-09T13:29:29;3.55;;;0.88;;
35026;SDS011;60696;51.426;6.934;2022-09-09T13:32:06;2.75;;;0.73;;
35026;SDS011;60696;51.426;6.934;2022-09-09T13:34:40;5.55;;;0.90;;
35026;SDS011;60696;51.426;6.934;2022-09-09T13:37:23;2.58;;;0.85;;
35026;SDS011;60696;51.426;6.934;2022-09-09T13:40:02;3.28;;;0.80;;
35026;SDS011;60696;51.426;6.934;2022-09-09T13:42:31;5.30;;;0.80;;
35026;SDS011;60696;51.426;6.934;2022-09-09T13:45:00;5.53;;;0.82;;
35026;SDS011;60696;51.426;6.934;2022-09-09T13:47:30;1.88;;;0.50;;
35026;SDS011;60696;51.426;6.934;2022-09-09T13:49:58;6.32;;;0.82;;
35026;SDS011;60696;51.426;6.934;2022-09-09T13:52:34;2.92;;;0.52;;
35026;SDS011;60696;51.426;6.934;2022-09-09T13:55:00;4.70;;;0.50;;
35026;SDS011;60696;51.426;6.934;2022-09-09T13:57:26;2.47;;;0.60;;
35026;SDS011;60696;51.426;6.934;2022-09-09T13:59:52;6.32;;;0.73;;
35026;SDS011;60696;51.426;6.934;2022-09-09T14:02:19;3.15;;;0.65;;
35026;SDS011;60696;51.426;6.934;2022-09-09T14:04:49;2.40;;;0.65;;
35026;SDS011;60696;51.426;6.934;2022-09-09T14:07:19;3.03;;;0.65;;
35026;SDS011;60696;51.426;6.934;2022-09-09T14:09:45;4.78;;;0.60;;
35026;SDS011;60696;51.426;6.934;2022-09-09T14:12:15;1.95;;;0.70;;
35026;SDS011;60696;51.426;6.934;2022-09-09T14:14:41;3.63;;;0.75;;
35026;SDS011;60696;51.426;6.934;2022-09-09T14:17:07;3.50;;;0.80;;
35026;SDS011;60696;51.426;6.934;2022-09-09T14:19:33;5.05;;;0.75;;
35026;SDS011;60696;51.426;6.934;2022-09-09T14:21:59;3.58;;;0.88;;
35026;SDS011;60696;51.426;6.934;2022-09-09T14:24:26;4.88;;;0.77;;
35026;SDS011;60696;51.426;6.934;2022-09-09T14:26:52;3.53;;;0.90;;
35026;SDS011;60696;51.426;6.934;2022-09-09T14:29:18;4.90;;;0.82;;
35026;SDS011;60696;51.426;6.934;2022-09-09T14:31:44;3.22;;;1.00;;
35026;SDS011;60696;51.426;6.934;2022-09-09T14:34:10;2.53;;;0.60;;
35026;SDS011;60696;51.426;6.934;2022-09-09T14:36:36;7.40;;;0.90;;
35026;SDS011;60696;51.426;6.934;2022-09-09T14:39:03;2.03;;;0.70;;
35026;SDS011;60696;51.426;6.934;2022-09-09T14:41:29;6.75;;;1.10;;
35026;SDS011;60696;51.426;6.934;2022-09-09T14:43:55;3.42;;;0.65;;
35026;SDS011;60696;51.426;6.934;2022-09-09T14:46:21;5.57;;;0.75;;
35026;SDS011;60696;51.426;6.934;2022-09-09T14:48:47;3.15;;;0.82;;
35026;SDS011;60696;51.426;6.934;2022-09-09T14:51:20;13.00;;;2.03;;
35026;SDS011;60696;51.426;6.934;2022-09-09T14:53:53;10.55;;;1.45;;
35026;SDS011;60696;51.426;6.934;2022-09-09T14:56:21;3.03;;;1.05;;
35026;SDS011;60696;51.426;6.934;2022-09-09T14:58:49;3.63;;;0.90;;
35026;SDS011;60696;51.426;6.934;2022-09-09T15:01:16;3.17;;;1.42;;
35026;SDS011;60696;51.426;6.934;2022-09-09T15:03:48;2.90;;;1.33;;
35026;SDS011;60696;51.426;6.934;2022-09-09T15:06:16;2.88;;;0.90;;
35026;SDS011;60696;51.426;6.934;2022-09-09T15:08:45;0.90;;;0.50;;
35026;SDS011;60696;51.426;6.934;2022-09-09T15:11:12;1.38;;;0.73;;
35026;SDS011;60696;51.426;6.934;2022-09-09T15:13:39;1.20;;;0.40;;
35026;SDS011;60696;51.426;6.934;2022-09-09T15:16:06;4.10;;;0.40;;
35026;SDS011;60696;51.426;6.934;2022-09-09T15:18:33;1.38;;;0.45;;
35026;SDS011;60696;51.426;6.934;2022-09-09T15:21:01;2.30;;;0.40;;
35026;SDS011;60696;51.426;6.934;2022-09-09T15:23:33;1.10;;;0.30;;
35026;SDS011;60696;51.426;6.934;2022-09-09T15:25:59;2.42;;;0.32;;
35026;SDS011;60696;51.426;6.934;2022-09-09T15:28:25;2.50;;;0.40;;
35026;SDS011;60696;51.426;6.934;2022-09-09T15:30:51;1.48;;;0.40;;
35026;SDS011;60696;51.426;6.934;2022-09-09T15:33:18;0.93;;;0.20;;
35026;SDS011;60696;51.426;6.934;2022-09-09T15:35:45;1.77;;;0.25;;
35026;SDS011;60696;51.426;6.934;2022-09-09T15:38:11;1.42;;;0.40;;
35026;SDS011;60696;51.426;6.934;2022-09-09T15:40:41;2.10;;;0.40;;
35026;SDS011;60696;51.426;6.934;2022-09-09T15:43:07;1.15;;;0.32;;
35026;SDS011;60696;51.426;6.934;2022-09-09T15:45:34;2.67;;;0.32;;
35026;SDS011;60696;51.426;6.934;2022-09-09T15:48:00;4.85;;;0.35;;
35026;SDS011;60696;51.426;6.934;2022-09-09T15:50:27;1.85;;;0.30;;
35026;SDS011;60696;51.426;6.934;2022-09-09T15:52:57;2.78;;;0.60;;
35026;SDS011;60696;51.426;6.934;2022-09-09T15:55:23;0.73;;;0.28;;
35026;SDS011;60696;51.426;6.934;2022-09-09T15:57:49;0.82;;;0.20;;
35026;SDS011;60696;51.426;6.934;2022-09-09T16:00:17;1.02;;;0.40;;
35026;SDS011;60696;51.426;6.934;2022-09-09T16:02:43;2.17;;;0.32;;
35026;SDS011;60696;51.426;6.934;2022-09-09T16:05:09;1.95;;;0.43;;
35026;SDS011;60696;51.426;6.934;2022-09-09T16:07:34;1.20;;;0.25;;
35026;SDS011;60696;51.426;6.934;2022-09-09T16:10:01;4.15;;;0.40;;
35026;SDS011;60696;51.426;6.934;2022-09-09T16:12:27;2.38;;;0.40;;
35026;SDS011;60696;51.426;6.934;2022-09-09T16:14:53;3.13;;;0.40;;
35026;SDS011;60696;51.426;6.934;2022-09-09T16:17:18;3.35;;;0.40;;
35026;SDS011;60696;51.426;6.934;2022-09-09T16:19:45;2.78;;;0.40;;
35026;SDS011;60696;51.426;6.934;2022-09-09T16:22:11;1.50;;;0.40;;
35026;SDS011;60696;51.426;6.934;2022-09-09T16:24:36;2.67;;;0.60;;
35026;SDS011;60696;51.426;6.934;2022-09-09T16:27:02;3.00;;;0.55;;
35026;SDS011;60696;51.426;6.934;2022-09-09T16:29:28;2.03;;;0.40;;
35026;SDS011;60696;51.426;6.934;2022-09-09T16:31:54;2.40;;;0.57;;
35026;SDS011;60696;51.426;6.934;2022-09-09T16:34:20;2.10;;;0.57;;
35026;SDS011;60696;51.426;6.934;2022-09-09T16:36:46;1.92;;;0.50;;
35026;SDS011;60696;51.426;6.934;2022-09-09T16:39:22;3.20;;;0.80;;
35026;SDS011;60696;51.426;6.934;2022-09-09T16:41:48;2.60;;;0.60;;
35026;SDS011;60696;51.426;6.934;2022-09-09T16:44:15;1.77;;;0.60;;
35026;SDS011;60696;51.426;6.934;2022-09-09T16:46:43;2.83;;;0.90;;
35026;SDS011;60696;51.426;6.934;2022-09-09T16:49:10;4.35;;;1.10;;
35026;SDS011;60696;51.426;6.934;2022-09-09T16:51:39;4.47;;;0.98;;
35026;SDS011;60696;51.426;6.934;2022-09-09T16:54:07;3.63;;;1.20;;
35026;SDS011;60696;51.426;6.934;2022-09-09T16:56:34;4.13;;;1.00;;
35026;SDS011;60696;51.426;6.934;2022-09-09T16:59:02;5.05;;;1.20;;
35026;SDS011;60696;51.426;6.934;2022-09-09T17:01:31;4.68;;;1.05;;
35026;SDS011;60696;51.426;6.934;2022-09-09T17:04:00;5.15;;;1.30;;
35026;SDS011;60696;51.426;6.934;2022-09-09T17:06:27;7.50;;;1.20;;
35026;SDS011;60696;51.426;6.934;2022-09-09T17:08:55;5.28;;;1.27;;
35026;SDS011;60696;51.426;6.934;2022-09-09T17:11:26;5.07;;;1.67;;
35026;SDS011;60696;51.426;6.934;2022-09-09T17:13:52;6.70;;;1.50;;
35026;SDS011;60696;51.426;6.934;2022-09-09T17:16:19;4.47;;;1.38;;
35026;SDS011;60696;51.426;6.934;2022-09-09T17:18:47;5.80;;;1.48;;